Time;durP1;ratioP1;P1;durP2;ratioP2;P2;SDS_P1;SDS_P2;PMS_P1;PMS_P2;Temp;Humidity;BMP_temperature;BMP_pressure;BME280_temperature;BME280_humidity;BME280_pressure;Samples;Min_cycle;Max_cycle;Signal;HPM_P1;HPM_P2
2022/11/05 00:10:47;;;;;;;10.13;4.93;;;;;;;;;;4988312;28;20045;-66
2022/11/05 00:18:43;;;;;;;7.47;3.88;;;;;;;;;;4988582;28;20444;-66
2022/11/05 00:25:12;;;;;;;10.32;4.30;;;;;;;;;;4984423;28;20018;-66
2022/11/05 00:26:40;;;;;;;15.18;4.15;;;;;;;;;;4981958;28;20439;-66
2022/11/05 00:29:07;;;;;;;12.77;4.30;;;;;;;;;;4982685;28;20064;-66
2022/11/05 00:31:33;;;;;;;10.27;4.18;;;;;;;;;;4982684;28;20030;-66
2022/11/05 00:33:59;;;;;;;13.48;4.88;;;;;;;;;;4980555;28;20101;-66
2022/11/05 00:36:25;;;;;;;10.70;3.67;;;;;;;;;;4979548;28;20125;-66
2022/11/05 00:38:51;;;;;;;11.50;3.53;;;;;;;;;;4983275;28;20030;-66
2022/11/05 00:41:17;;;;;;;11.18;4.07;;;;;;;;;;4989281;28;20027;-66
2022/11/05 00:46:28;;;;;;;8.50;3.88;;;;;;;;;;4980192;28;20541;-66
2022/11/05 00:51:38;;;;;;;11.00;3.80;;;;;;;;;;4981951;28;20030;-66
2022/11/05 00:54:05;;;;;;;13.45;3.85;;;;;;;;;;4976917;28;20038;-66
2022/11/05 00:56:31;;;;;;;12.27;5.30;;;;;;;;;;4983121;28;20035;-66
2022/11/05 00:58:57;;;;;;;7.32;3.80;;;;;;;;;;4983380;28;20067;-66
2022/11/05 01:01:23;;;;;;;17.45;4.00;;;;;;;;;;4990918;28;20035;-66
2022/11/05 01:03:49;;;;;;;12.40;3.17;;;;;;;;;;4988415;28;20066;-66
2022/11/05 01:06:16;;;;;;;13.77;3.47;;;;;;;;;;4977884;28;20030;-66
2022/11/05 01:08:43;;;;;;;11.02;3.53;;;;;;;;;;4981423;28;20031;-66
2022/11/05 01:11:10;;;;;;;12.90;4.18;;;;;;;;;;4984609;28;20030;-66
2022/11/05 01:13:37;;;;;;;8.77;3.35;;;;;;;;;;4974926;28;20046;-66
2022/11/05 01:16:05;;;;;;;10.85;3.53;;;;;;;;;;4987139;28;20031;-66
2022/11/05 01:18:31;;;;;;;11.70;3.20;;;;;;;;;;4986944;28;20498;-66
2022/11/05 01:20:57;;;;;;;13.02;2.83;;;;;;;;;;4979861;28;20057;-66
2022/11/05 01:23:23;;;;;;;7.47;3.22;;;;;;;;;;4984141;28;20031;-66
2022/11/05 01:25:50;;;;;;;5.47;2.67;;;;;;;;;;4974589;28;20091;-66
2022/11/05 01:28:16;;;;;;;8.63;2.38;;;;;;;;;;4985521;28;20030;-66
2022/11/05 01:30:42;;;;;;;11.88;2.67;;;;;;;;;;4980554;28;20163;-66
2022/11/05 01:33:08;;;;;;;8.57;2.83;;;;;;;;;;4978640;28;20026;-66
2022/11/05 01:35:34;;;;;;;14.60;2.97;;;;;;;;;;4987107;28;20043;-66
2022/11/05 01:38:00;;;;;;;7.70;2.40;;;;;;;;;;4987414;28;20015;-66
2022/11/05 01:40:26;;;;;;;11.30;2.20;;;;;;;;;;4977878;28;20037;-66
2022/11/05 01:42:52;;;;;;;10.20;2.20;;;;;;;;;;4980614;28;20026;-66
2022/11/05 01:45:24;;;;;;;7.00;1.90;;;;;;;;;;4985048;28;20033;-66
2022/11/05 01:47:58;;;;;;;9.82;2.53;;;;;;;;;;4980749;28;20038;-66
2022/11/05 01:50:31;;;;;;;8.93;2.13;;;;;;;;;;4984764;28;20039;-66
2022/11/05 01:53:02;;;;;;;10.48;2.30;;;;;;;;;;4981583;28;20387;-66
2022/11/05 01:55:31;;;;;;;6.97;2.10;;;;;;;;;;4975673;28;20117;-66
2022/11/05 01:57:58;;;;;;;7.00;2.08;;;;;;;;;;4987025;28;20084;-66
2022/11/05 02:00:24;;;;;;;10.30;2.55;;;;;;;;;;4971618;28;20030;-66
2022/11/05 02:02:50;;;;;;;11.85;2.08;;;;;;;;;;4980319;28;20569;-66
2022/11/05 02:05:17;;;;;;;9.38;2.22;;;;;;;;;;4979125;28;20126;-66
2022/11/05 02:07:45;;;;;;;8.95;2.30;;;;;;;;;;4989561;28;20080;-66
2022/11/05 02:10:12;;;;;;;5.85;2.05;;;;;;;;;;4975184;28;20033;-66
2022/11/05 02:12:40;;;;;;;8.52;2.38;;;;;;;;;;4982957;28;20117;-66
2022/11/05 02:15:06;;;;;;;7.22;2.17;;;;;;;;;;4972328;28;20027;-66
2022/11/05 02:17:32;;;;;;;6.95;2.33;;;;;;;;;;4985862;28;20026;-66
2022/11/05 02:20:09;;;;;;;6.63;2.22;;;;;;;;;;4973838;28;20031;-66
2022/11/05 02:22:41;;;;;;;13.15;2.25;;;;;;;;;;4983021;28;20079;-66
2022/11/05 02:25:10;;;;;;;9.02;2.05;;;;;;;;;;4980720;28;20034;-66
2022/11/05 02:27:54;;;;;;;7.57;1.77;;;;;;;;;;4974714;28;20054;-66
2022/11/05 02:30:33;;;;;;;5.72;1.70;;;;;;;;;;4970792;28;20027;-66
2022/11/05 02:33:09;;;;;;;7.97;2.28;;;;;;;;;;4979629;28;20035;-66
2022/11/05 02:35:47;;;;;;;11.13;2.35;;;;;;;;;;4975375;28;20512;-66
2022/11/05 02:38:19;;;;;;;8.30;2.13;;;;;;;;;;4974391;28;20399;-66
2022/11/05 02:40:54;;;;;;;7.80;2.10;;;;;;;;;;4982033;28;20068;-66
2022/11/05 02:43:41;;;;;;;7.65;2.22;;;;;;;;;;4983031;28;20506;-66
2022/11/05 02:46:13;;;;;;;14.00;2.55;;;;;;;;;;4973725;28;20126;-66
2022/11/05 02:48:45;;;;;;;6.50;2.40;;;;;;;;;;4983209;28;20034;-66
2022/11/05 02:51:18;;;;;;;4.68;2.08;;;;;;;;;;4981393;28;20034;-66
2022/11/05 02:53:44;;;;;;;7.30;2.10;;;;;;;;;;4978338;28;20095;-66
2022/11/05 02:56:17;;;;;;;6.38;2.33;;;;;;;;;;4981116;28;20033;-66
2022/11/05 02:58:43;;;;;;;14.10;4.88;;;;;;;;;;4981629;28;20037;-66
2022/11/05 03:01:11;;;;;;;15.68;2.50;;;;;;;;;;4982728;28;20045;-66
2022/11/05 03:03:42;;;;;;;11.68;2.40;;;;;;;;;;4981494;28;20050;-66
2022/11/05 03:06:38;;;;;;;9.32;2.97;;;;;;;;;;4983499;28;20068;-66
2022/11/05 03:09:04;;;;;;;10.65;2.33;;;;;;;;;;4995268;28;20038;-66
2022/11/05 03:11:32;;;;;;;8.75;2.55;;;;;;;;;;4981638;28;20031;-66
2022/11/05 03:14:04;;;;;;;8.25;1.95;;;;;;;;;;4982280;28;20034;-66
2022/11/05 03:16:39;;;;;;;9.40;2.20;;;;;;;;;;4984941;28;20034;-66
2022/11/05 03:19:21;;;;;;;8.18;2.10;;;;;;;;;;4982660;28;20071;-66
2022/11/05 03:21:50;;;;;;;8.40;2.10;;;;;;;;;;4988861;28;20471;-66
2022/11/05 03:24:37;;;;;;;15.38;2.10;;;;;;;;;;4989113;28;20031;-66
2022/11/05 03:27:12;;;;;;;7.50;1.83;;;;;;;;;;4982257;28;20035;-66
2022/11/05 03:29:39;;;;;;;9.43;2.28;;;;;;;;;;4987567;28;20037;-66
2022/11/05 03:32:07;;;;;;;6.63;1.70;;;;;;;;;;4976430;28;20065;-66
2022/11/05 03:34:36;;;;;;;7.05;2.20;;;;;;;;;;4987458;28;20037;-66
2022/11/05 03:37:03;;;;;;;10.20;2.10;;;;;;;;;;4982582;28;20030;-66
2022/11/05 03:39:32;;;;;;;3.72;1.80;;;;;;;;;;4982067;28;20105;-66
2022/11/05 03:41:59;;;;;;;8.30;2.78;;;;;;;;;;4991619;28;20026;-66
2022/11/05 03:44:28;;;;;;;11.02;1.98;;;;;;;;;;4977526;28;20112;-66
2022/11/05 03:46:56;;;;;;;9.93;2.33;;;;;;;;;;4984560;28;20023;-66
2022/11/05 03:49:28;;;;;;;11.20;2.17;;;;;;;;;;4974936;28;20031;-66
2022/11/05 03:52:13;;;;;;;9.88;2.15;;;;;;;;;;4988989;28;20496;-66
2022/11/05 03:54:39;;;;;;;10.02;2.78;;;;;;;;;;4978804;28;20034;-66
2022/11/05 03:57:08;;;;;;;7.35;2.30;;;;;;;;;;4983197;28;20023;-66
2022/11/05 03:59:44;;;;;;;11.05;2.70;;;;;;;;;;4988195;28;20064;-66
2022/11/05 04:02:11;;;;;;;8.38;1.95;;;;;;;;;;4987952;28;20026;-66
2022/11/05 04:04:38;;;;;;;7.22;2.35;;;;;;;;;;4986847;28;20114;-66
2022/11/05 04:15:19;;;;;;;12.35;2.50;;;;;;;;;;4984218;28;20420;-66
2022/11/05 04:17:45;;;;;;;13.43;2.30;;;;;;;;;;4985880;28;20015;-66
2022/11/05 04:25:44;;;;;;;14.30;2.30;;;;;;;;;;4975057;28;20106;-66
2022/11/05 04:28:11;;;;;;;14.90;3.45;;;;;;;;;;4990276;28;20057;-66
2022/11/05 04:30:37;;;;;;;8.77;2.33;;;;;;;;;;4972794;28;20379;-66
2022/11/05 04:33:07;;;;;;;13.52;1.95;;;;;;;;;;4972079;28;20054;-66
2022/11/05 04:35:38;;;;;;;6.75;2.17;;;;;;;;;;4980546;28;20087;-66
2022/11/05 04:38:05;;;;;;;12.60;2.30;;;;;;;;;;4986713;28;20033;-66
2022/11/05 04:40:31;;;;;;;9.45;2.40;;;;;;;;;;4984032;28;20029;-65
2022/11/05 04:42:57;;;;;;;14.88;2.30;;;;;;;;;;4985255;28;20023;-65
2022/11/05 04:45:24;;;;;;;11.13;2.40;;;;;;;;;;4991077;28;20022;-66
2022/11/05 04:47:50;;;;;;;12.20;2.75;;;;;;;;;;4976821;28;20121;-66
2022/11/05 04:50:16;;;;;;;16.13;2.83;;;;;;;;;;4988091;28;20049;-65
2022/11/05 04:52:43;;;;;;;15.15;2.58;;;;;;;;;;4977299;28;20029;-65
2022/11/05 04:55:09;;;;;;;15.20;2.20;;;;;;;;;;4981523;28;20074;-66
2022/11/05 04:57:36;;;;;;;12.57;2.53;;;;;;;;;;4981180;28;20027;-66
2022/11/05 05:00:03;;;;;;;13.02;3.83;;;;;;;;;;4980258;28;20027;-66
2022/11/05 05:02:29;;;;;;;10.55;2.08;;;;;;;;;;4981205;28;20136;-66
2022/11/05 05:04:55;;;;;;;15.27;2.55;;;;;;;;;;4981374;28;20031;-68
2022/11/05 05:07:21;;;;;;;15.30;2.28;;;;;;;;;;4985356;28;20041;-65
2022/11/05 05:09:47;;;;;;;12.35;2.05;;;;;;;;;;4984044;28;20030;-65
2022/11/05 05:12:13;;;;;;;11.32;2.08;;;;;;;;;;4990960;28;20564;-65
2022/11/05 05:14:39;;;;;;;15.38;2.60;;;;;;;;;;4987886;28;20034;-65
2022/11/05 05:17:05;;;;;;;20.52;2.83;;;;;;;;;;4978924;28;20479;-64
2022/11/05 05:21:37;;;;;;;21.00;3.05;;;;;;;;;;4980629;28;20027;-64
2022/11/05 05:22:20;;;;;;;9.65;2.22;;;;;;;;;;4985201;28;20113;-64
2022/11/05 05:24:46;;;;;;;10.73;1.83;;;;;;;;;;4975472;28;20035;-65
2022/11/05 05:27:13;;;;;;;15.38;2.42;;;;;;;;;;4986113;28;20118;-65
2022/11/05 05:29:39;;;;;;;11.65;2.83;;;;;;;;;;4991539;28;20392;-64
2022/11/05 05:32:05;;;;;;;11.90;2.30;;;;;;;;;;4990084;28;20045;-64
2022/11/05 05:34:31;;;;;;;11.15;2.00;;;;;;;;;;4990240;28;20410;-64
2022/11/05 05:36:57;;;;;;;16.15;2.60;;;;;;;;;;4991468;28;20030;-64
2022/11/05 05:39:23;;;;;;;8.52;2.28;;;;;;;;;;4991282;28;20031;-64
2022/11/05 05:41:50;;;;;;;10.27;2.20;;;;;;;;;;4990671;28;20117;-64
2022/11/05 05:44:16;;;;;;;18.13;2.45;;;;;;;;;;4991488;28;20030;-64
2022/11/05 05:46:42;;;;;;;9.32;2.42;;;;;;;;;;4990359;28;20079;-64
2022/11/05 05:49:09;;;;;;;14.32;2.17;;;;;;;;;;4990168;28;20037;-64
2022/11/05 05:51:35;;;;;;;6.93;2.70;;;;;;;;;;4990998;28;20069;-64
2022/11/05 05:54:01;;;;;;;14.60;2.05;;;;;;;;;;4991072;28;20030;-64
2022/11/05 05:56:27;;;;;;;14.68;2.38;;;;;;;;;;4989314;28;20079;-64
2022/11/05 05:58:54;;;;;;;16.38;2.60;;;;;;;;;;4990695;28;20030;-64
2022/11/05 06:01:20;;;;;;;10.38;2.20;;;;;;;;;;4971401;28;20026;-64
2022/11/05 06:03:46;;;;;;;14.60;3.28;;;;;;;;;;4989427;28;20088;-64
2022/11/05 06:06:13;;;;;;;16.10;2.22;;;;;;;;;;4984806;28;20030;-64
2022/11/05 06:08:39;;;;;;;11.07;3.00;;;;;;;;;;4988043;28;20034;-64
2022/11/05 06:11:06;;;;;;;11.55;2.45;;;;;;;;;;4975037;28;20495;-64
2022/11/05 06:13:32;;;;;;;16.67;2.00;;;;;;;;;;4990635;28;20038;-64
2022/11/05 06:16:01;;;;;;;11.98;2.10;;;;;;;;;;4976634;28;20027;-64
2022/11/05 06:18:28;;;;;;;12.77;1.85;;;;;;;;;;4986931;28;20083;-64
2022/11/05 06:20:54;;;;;;;11.48;2.63;;;;;;;;;;4989202;28;20034;-64
2022/11/05 06:23:21;;;;;;;16.00;2.47;;;;;;;;;;4982569;28;20092;-64
2022/11/05 06:25:47;;;;;;;16.85;2.83;;;;;;;;;;4983446;28;20022;-64
2022/11/05 06:28:13;;;;;;;9.13;1.95;;;;;;;;;;4989204;28;20027;-64
2022/11/05 06:30:39;;;;;;;12.13;2.38;;;;;;;;;;4973990;28;20050;-64
2022/11/05 06:33:05;;;;;;;13.75;2.67;;;;;;;;;;4984716;28;20019;-64
2022/11/05 06:35:32;;;;;;;8.85;2.55;;;;;;;;;;4991667;28;20126;-64
2022/11/05 06:37:58;;;;;;;14.40;3.00;;;;;;;;;;4990662;28;20022;-64
2022/11/05 06:40:25;;;;;;;13.48;2.42;;;;;;;;;;4990093;28;20038;-64
2022/11/05 06:42:54;;;;;;;13.00;2.05;;;;;;;;;;4993027;28;20037;-64
2022/11/05 06:45:20;;;;;;;9.30;1.90;;;;;;;;;;4984678;28;20125;-64
2022/11/05 06:47:47;;;;;;;13.80;3.05;;;;;;;;;;4981413;28;20034;-64
2022/11/05 06:50:13;;;;;;;14.48;2.20;;;;;;;;;;4984550;28;20030;-64
2022/11/05 06:52:39;;;;;;;15.60;2.40;;;;;;;;;;4986450;28;20030;-64
2022/11/05 06:55:05;;;;;;;9.20;2.42;;;;;;;;;;4985522;28;20030;-64
2022/11/05 06:57:31;;;;;;;15.68;2.67;;;;;;;;;;4983580;28;20027;-64
2022/11/05 06:59:57;;;;;;;16.75;2.53;;;;;;;;;;4984575;28;20037;-64
2022/11/05 07:02:23;;;;;;;7.97;2.20;;;;;;;;;;4984390;28;20034;-64
2022/11/05 07:04:49;;;;;;;11.80;2.30;;;;;;;;;;4983149;28;20026;-64
2022/11/05 07:07:15;;;;;;;8.90;2.72;;;;;;;;;;4983600;28;20117;-64
2022/11/05 07:09:42;;;;;;;12.65;2.40;;;;;;;;;;4985016;28;20113;-64
2022/11/05 07:12:09;;;;;;;10.15;2.20;;;;;;;;;;4991655;28;20075;-64
2022/11/05 07:14:35;;;;;;;8.20;2.17;;;;;;;;;;4978426;28;20039;-64
2022/11/05 07:17:01;;;;;;;18.33;2.70;;;;;;;;;;4980155;28;20023;-64
2022/11/05 07:19:27;;;;;;;9.32;2.00;;;;;;;;;;4986767;28;20039;-64
2022/11/05 07:21:53;;;;;;;13.85;1.92;;;;;;;;;;4989687;28;20031;-64
2022/11/05 07:24:19;;;;;;;11.63;1.92;;;;;;;;;;5004576;28;20044;-64
2022/11/05 07:26:45;;;;;;;10.32;2.38;;;;;;;;;;4987025;28;20042;-64
2022/11/05 07:29:11;;;;;;;11.90;2.17;;;;;;;;;;5015785;28;20031;-64
2022/11/05 07:31:37;;;;;;;17.20;2.30;;;;;;;;;;5000052;28;20385;-64
2022/11/05 07:34:04;;;;;;;13.43;1.77;;;;;;;;;;5007198;28;20040;-64
2022/11/05 07:36:30;;;;;;;10.52;1.50;;;;;;;;;;5003359;28;20113;-64
2022/11/05 07:38:56;;;;;;;9.23;2.00;;;;;;;;;;5013547;28;20116;-64
2022/11/05 07:41:22;;;;;;;11.32;2.92;;;;;;;;;;5001623;28;20055;-64
2022/11/05 07:43:48;;;;;;;10.98;2.05;;;;;;;;;;4987280;28;20133;-64
2022/11/05 07:46:14;;;;;;;13.60;2.20;;;;;;;;;;4988770;28;20034;-61
2022/11/05 07:48:41;;;;;;;9.35;1.73;;;;;;;;;;4983463;28;20022;-61
2022/11/05 07:51:07;;;;;;;7.00;1.98;;;;;;;;;;4999344;28;20037;-62
2022/11/05 07:53:33;;;;;;;8.43;1.70;;;;;;;;;;5002225;28;20025;-61
2022/11/05 07:55:59;;;;;;;12.38;2.30;;;;;;;;;;4993861;28;20022;-61
2022/11/05 07:58:26;;;;;;;11.48;2.40;;;;;;;;;;4980300;28;20375;-62
2022/11/05 08:00:52;;;;;;;10.50;2.90;;;;;;;;;;4975352;28;20072;-61
2022/11/05 08:03:18;;;;;;;9.25;3.30;;;;;;;;;;4976520;28;20543;-61
2022/11/05 08:05:45;;;;;;;9.95;2.45;;;;;;;;;;4977958;28;20480;-61
2022/11/05 08:08:13;;;;;;;11.88;1.92;;;;;;;;;;4974825;28;20030;-61
2022/11/05 08:10:39;;;;;;;13.43;2.25;;;;;;;;;;4973548;28;20035;-62
2022/11/05 08:13:05;;;;;;;8.57;2.10;;;;;;;;;;4976489;28;20440;-62
2022/11/05 08:15:32;;;;;;;14.35;2.30;;;;;;;;;;4980833;28;20126;-61
2022/11/05 08:18:02;;;;;;;9.55;1.95;;;;;;;;;;4981401;28;20044;-61
2022/11/05 08:20:29;;;;;;;6.07;1.83;;;;;;;;;;4988239;28;20462;-61
2022/11/05 08:22:55;;;;;;;8.02;2.00;;;;;;;;;;4989639;28;20384;-61
2022/11/05 08:25:21;;;;;;;9.98;2.25;;;;;;;;;;4983226;28;20109;-61
2022/11/05 08:27:48;;;;;;;11.63;1.80;;;;;;;;;;4978226;28;20034;-61
2022/11/05 08:30:14;;;;;;;10.30;1.88;;;;;;;;;;4979131;28;20037;-62
2022/11/05 08:32:40;;;;;;;19.25;3.28;;;;;;;;;;4976376;28;20026;-61
2022/11/05 08:35:06;;;;;;;13.70;2.28;;;;;;;;;;4979686;28;20022;-61
2022/11/05 08:37:32;;;;;;;8.85;2.55;;;;;;;;;;4975217;28;20078;-61
2022/11/05 08:39:58;;;;;;;11.55;2.53;;;;;;;;;;4976565;28;20049;-61
2022/11/05 08:42:24;;;;;;;11.23;2.42;;;;;;;;;;4972768;28;20027;-61
2022/11/05 08:44:50;;;;;;;14.25;3.00;;;;;;;;;;4974374;28;20068;-61
2022/11/05 08:47:16;;;;;;;10.38;2.28;;;;;;;;;;4978150;28;20553;-61
2022/11/05 08:49:43;;;;;;;11.65;2.47;;;;;;;;;;4980376;28;20027;-61
2022/11/05 08:52:09;;;;;;;11.02;2.67;;;;;;;;;;4985313;28;20442;-61
2022/11/05 08:54:35;;;;;;;15.70;3.53;;;;;;;;;;4974733;28;20062;-62
2022/11/05 08:57:01;;;;;;;11.60;2.63;;;;;;;;;;4977961;28;20439;-62
2022/11/05 08:59:28;;;;;;;13.52;2.42;;;;;;;;;;4977819;28;20023;-61
2022/11/05 09:01:54;;;;;;;14.88;2.65;;;;;;;;;;4978797;28;20026;-61
2022/11/05 09:04:21;;;;;;;12.73;3.40;;;;;;;;;;4977425;28;20122;-61
2022/11/05 09:06:47;;;;;;;10.20;2.58;;;;;;;;;;4972370;28;20117;-61
2022/11/05 09:09:13;;;;;;;11.30;2.47;;;;;;;;;;4973629;28;20035;-61
2022/11/05 09:11:39;;;;;;;14.55;2.80;;;;;;;;;;4972074;28;20472;-62
2022/11/05 09:14:05;;;;;;;15.43;4.63;;;;;;;;;;4974102;28;20027;-61
2022/11/05 09:16:33;;;;;;;13.63;2.83;;;;;;;;;;4972683;28;20038;-61
2022/11/05 09:19:01;;;;;;;17.52;2.70;;;;;;;;;;4973062;28;20388;-61
2022/11/05 09:21:27;;;;;;;16.80;2.92;;;;;;;;;;4973507;28;20019;-61
2022/11/05 09:23:53;;;;;;;13.68;5.50;;;;;;;;;;4976094;28;20023;-62
2022/11/05 09:26:19;;;;;;;15.27;4.15;;;;;;;;;;4972178;28;20065;-61
2022/11/05 09:28:45;;;;;;;10.43;3.35;;;;;;;;;;4973645;28;20042;-62
2022/11/05 09:31:11;;;;;;;17.58;3.00;;;;;;;;;;4972047;28;20019;-62
2022/11/05 09:33:38;;;;;;;15.00;3.45;;;;;;;;;;4973523;28;20129;-61
2022/11/05 09:36:05;;;;;;;9.85;4.03;;;;;;;;;;4973255;28;20033;-61
2022/11/05 09:38:33;;;;;;;13.32;2.42;;;;;;;;;;4973345;28;20058;-61
2022/11/05 09:40:59;;;;;;;12.43;2.97;;;;;;;;;;4976194;28;20019;-61
2022/11/05 09:43:30;;;;;;;11.63;2.65;;;;;;;;;;4973790;28;20106;-61
2022/11/05 09:45:57;;;;;;;10.63;2.47;;;;;;;;;;4972055;28;20511;-61
2022/11/05 09:48:27;;;;;;;12.30;2.70;;;;;;;;;;4976064;28;20037;-61
2022/11/05 09:50:53;;;;;;;15.93;3.13;;;;;;;;;;4974317;28;20092;-61
2022/11/05 09:53:21;;;;;;;15.43;3.55;;;;;;;;;;4973146;28;20454;-61
2022/11/05 09:55:49;;;;;;;13.30;2.67;;;;;;;;;;4979511;28;20034;-61
2022/11/05 09:58:20;;;;;;;9.43;2.70;;;;;;;;;;4986934;28;20464;-61
2022/11/05 10:00:49;;;;;;;8.45;2.83;;;;;;;;;;4989163;28;20030;-61
2022/11/05 10:03:19;;;;;;;7.03;2.67;;;;;;;;;;4982714;28;20104;-61
2022/11/05 10:05:45;;;;;;;13.38;3.15;;;;;;;;;;4984421;28;20046;-61
2022/11/05 10:08:19;;;;;;;14.68;3.95;;;;;;;;;;4988498;28;20084;-61
2022/11/05 10:10:48;;;;;;;21.77;3.55;;;;;;;;;;4979553;28;20431;-61
2022/11/05 10:13:17;;;;;;;12.00;2.83;;;;;;;;;;4982794;28;20030;-61
2022/11/05 10:15:48;;;;;;;18.00;4.45;;;;;;;;;;4986797;28;20022;-61
2022/11/05 10:18:30;;;;;;;8.55;2.72;;;;;;;;;;4982049;28;20379;-61
2022/11/05 10:20:56;;;;;;;13.77;3.63;;;;;;;;;;4982955;28;20038;-61
2022/11/05 10:23:22;;;;;;;18.27;3.33;;;;;;;;;;4978204;28;20034;-61
2022/11/05 10:25:56;;;;;;;8.68;3.20;;;;;;;;;;4985692;28;20037;-61
2022/11/05 10:28:24;;;;;;;9.93;3.13;;;;;;;;;;4987680;28;20026;-61
2022/11/05 10:30:58;;;;;;;9.00;2.50;;;;;;;;;;4982291;28;20034;-61
2022/11/05 10:33:38;;;;;;;9.77;2.92;;;;;;;;;;4982658;28;20412;-61
2022/11/05 10:36:05;;;;;;;12.50;2.75;;;;;;;;;;4982233;28;20031;-61
2022/11/05 10:38:32;;;;;;;9.32;2.70;;;;;;;;;;4984261;28;20113;-61
2022/11/05 10:40:58;;;;;;;14.90;3.28;;;;;;;;;;4980234;28;20045;-61
2022/11/05 10:43:39;;;;;;;12.63;2.95;;;;;;;;;;4982744;28;20027;-61
2022/11/05 10:46:13;;;;;;;13.43;3.47;;;;;;;;;;4985518;28;20115;-61
2022/11/05 10:48:51;;;;;;;21.15;4.55;;;;;;;;;;4979426;28;20116;-62
2022/11/05 10:51:18;;;;;;;12.00;3.05;;;;;;;;;;4979580;28;20046;-62
2022/11/05 10:53:50;;;;;;;11.35;2.83;;;;;;;;;;4978725;28;20034;-61
2022/11/05 10:56:28;;;;;;;6.90;2.90;;;;;;;;;;4981457;28;20045;-61
2022/11/05 10:58:56;;;;;;;18.25;2.65;;;;;;;;;;4984747;28;20038;-61
2022/11/05 11:01:23;;;;;;;10.30;2.60;;;;;;;;;;4976657;28;20026;-61
2022/11/05 11:03:51;;;;;;;16.88;2.70;;;;;;;;;;4980683;28;20045;-61
2022/11/05 11:06:17;;;;;;;15.40;2.92;;;;;;;;;;4974535;28;20038;-61
2022/11/05 11:08:44;;;;;;;26.63;3.28;;;;;;;;;;4979429;28;20030;-62
2022/11/05 11:11:12;;;;;;;17.85;2.63;;;;;;;;;;4983161;28;20034;-61
2022/11/05 11:13:57;;;;;;;15.38;2.75;;;;;;;;;;4981464;28;20026;-62
2022/11/05 11:16:25;;;;;;;9.32;2.30;;;;;;;;;;4979783;28;20023;-61
2022/11/05 11:19:02;;;;;;;18.02;4.38;;;;;;;;;;4982334;28;20023;-61
2022/11/05 11:21:29;;;;;;;16.58;3.90;;;;;;;;;;4980244;28;20018;-61
2022/11/05 11:23:56;;;;;;;16.80;3.95;;;;;;;;;;4977530;28;20026;-61
2022/11/05 11:26:24;;;;;;;15.65;3.17;;;;;;;;;;4977195;28;20499;-61
2022/11/05 11:29:16;;;;;;;14.50;3.58;;;;;;;;;;4979490;28;20037;-61
2022/11/05 11:31:42;;;;;;;15.32;3.78;;;;;;;;;;4985889;28;20162;-61
2022/11/05 11:34:14;;;;;;;11.23;3.28;;;;;;;;;;4998077;28;20024;-61
2022/11/05 11:36:45;;;;;;;12.48;3.15;;;;;;;;;;4980080;28;20042;-60
2022/11/05 11:39:15;;;;;;;12.35;2.83;;;;;;;;;;5002347;28;20133;-61
2022/11/05 11:41:42;;;;;;;10.73;3.50;;;;;;;;;;4992426;28;20555;-60
2022/11/05 11:44:14;;;;;;;9.43;3.30;;;;;;;;;;5001617;28;20022;-61
2022/11/05 11:46:40;;;;;;;;;;;;;;;;;;4984162;28;20476;-61
2022/11/05 11:49:26;;;;;;;19.35;2.83;;;;;;;;;;4990138;28;19955;-61
2022/11/05 11:51:54;;;;;;;13.55;2.67;;;;;;;;;;4983203;28;20080;-62
2022/11/05 11:54:24;;;;;;;16.98;2.83;;;;;;;;;;4985316;28;20073;-61
2022/11/05 11:56:50;;;;;;;15.93;2.90;;;;;;;;;;4995149;28;20031;-61
2022/11/05 11:59:22;;;;;;;13.70;3.25;;;;;;;;;;4986094;28;20027;-61
2022/11/05 12:01:51;;;;;;;11.70;2.58;;;;;;;;;;4986877;28;20058;-61
2022/11/05 12:04:17;;;;;;;17.85;2.85;;;;;;;;;;4984152;28;20096;-61
2022/11/05 12:06:49;;;;;;;16.27;2.60;;;;;;;;;;4983303;28;20105;-61
2022/11/05 12:09:51;;;;;;;10.13;3.15;;;;;;;;;;4982574;28;20514;-61
2022/11/05 12:12:19;;;;;;;8.13;2.58;;;;;;;;;;5042820;28;20029;-61
2022/11/05 12:15:17;;;;;;;12.07;2.65;;;;;;;;;;5046487;28;20591;-61
2022/11/05 12:17:50;;;;;;;14.48;2.63;;;;;;;;;;5046603;28;20502;-61
2022/11/05 12:20:16;;;;;;;;;;;;;;;;;;5048664;28;20530;-61
2022/11/05 12:22:54;;;;;;;11.15;2.65;;;;;;;;;;5040970;28;19912;-62
2022/11/05 12:25:38;;;;;;;11.02;2.45;;;;;;;;;;5043772;28;20091;-61
2022/11/05 12:28:04;;;;;;;12.77;2.83;;;;;;;;;;5048522;28;20422;-61
2022/11/05 12:30:36;;;;;;;11.15;2.40;;;;;;;;;;5046388;28;20044;-61
2022/11/05 12:33:17;;;;;;;11.77;3.33;;;;;;;;;;5047946;28;20087;-61
2022/11/05 12:35:56;;;;;;;11.27;3.10;;;;;;;;;;5050046;28;20086;-61
2022/11/05 12:38:32;;;;;;;12.23;2.42;;;;;;;;;;5049464;28;20503;-61
2022/11/05 12:41:08;;;;;;;10.68;2.22;;;;;;;;;;5049391;28;20517;-61
2022/11/05 12:43:41;;;;;;;12.43;3.75;;;;;;;;;;5043903;28;20146;-61
2022/11/05 12:46:29;;;;;;;15.07;2.50;;;;;;;;;;5024434;28;20042;-60
2022/11/05 12:49:14;;;;;;;16.70;3.33;;;;;;;;;;4991507;28;20030;-61
2022/11/05 12:51:40;;;;;;;13.45;2.92;;;;;;;;;;4985052;28;20042;-61
2022/11/05 12:54:06;;;;;;;9.57;2.95;;;;;;;;;;4988567;28;20031;-61
2022/11/05 12:56:49;;;;;;;11.95;3.10;;;;;;;;;;4991215;28;20037;-61
2022/11/05 12:59:15;;;;;;;12.23;2.70;;;;;;;;;;4991336;28;20041;-61
2022/11/05 13:01:45;;;;;;;15.65;3.45;;;;;;;;;;4991039;28;20080;-61
2022/11/05 13:04:20;;;;;;;9.90;2.80;;;;;;;;;;4986972;28;20043;-61
2022/11/05 13:06:47;;;;;;;25.00;3.25;;;;;;;;;;4991359;28;20046;-60
2022/11/05 13:09:13;;;;;;;15.60;3.42;;;;;;;;;;4990609;28;20026;-61
2022/11/05 13:11:59;;;;;;;6.72;2.92;;;;;;;;;;4991265;28;20045;-61
2022/11/05 13:14:28;;;;;;;11.38;2.75;;;;;;;;;;4980057;28;20033;-60
2022/11/05 13:17:14;;;;;;;6.97;1.90;;;;;;;;;;4988647;28;20030;-61
2022/11/05 13:20:04;;;;;;;8.75;2.60;;;;;;;;;;4986460;28;20373;-60
2022/11/05 13:22:33;;;;;;;5.53;2.10;;;;;;;;;;4988391;28;20475;-61
2022/11/05 13:25:04;;;;;;;12.38;3.88;;;;;;;;;;4981188;28;20034;-61
2022/11/05 13:27:51;;;;;;;10.38;2.50;;;;;;;;;;4986563;28;20023;-61
2022/11/05 13:30:22;;;;;;;12.00;2.55;;;;;;;;;;4986328;28;20042;-61
2022/11/05 13:32:52;;;;;;;10.48;2.38;;;;;;;;;;4991522;28;20034;-61
2022/11/05 13:35:45;;;;;;;6.10;2.83;;;;;;;;;;5023407;28;20065;-61
2022/11/05 13:41:08;;;;;;;7.40;2.50;;;;;;;;;;5026024;28;20037;-61
2022/11/05 13:43:50;;;;;;;4.40;1.45;;;;;;;;;;5028126;28;20088;-61
2022/11/05 13:46:31;;;;;;;6.23;1.90;;;;;;;;;;5027656;28;20065;-61
2022/11/05 13:49:07;;;;;;;10.25;2.25;;;;;;;;;;5028435;28;20076;-61
2022/11/05 13:51:33;;;;;;;7.30;2.13;;;;;;;;;;5030053;28;20025;-61
2022/11/05 13:54:06;;;;;;;8.80;2.55;;;;;;;;;;5030255;28;20036;-61
2022/11/05 13:56:51;;;;;;;10.98;2.30;;;;;;;;;;5029983;28;20049;-61
2022/11/05 13:59:36;;;;;;;8.02;2.63;;;;;;;;;;5029526;28;20048;-61
2022/11/05 14:02:04;;;;;;;11.93;2.30;;;;;;;;;;5029880;28;20064;-61
2022/11/05 14:04:51;;;;;;;9.73;2.25;;;;;;;;;;5035190;28;20040;-61
2022/11/05 14:07:29;;;;;;;7.75;2.28;;;;;;;;;;5032087;28;20457;-61
2022/11/05 14:10:06;;;;;;;6.18;2.05;;;;;;;;;;5022258;28;20454;-61
2022/11/05 14:12:34;;;;;;;7.82;1.98;;;;;;;;;;5027789;28;20036;-61
2022/11/05 14:15:07;;;;;;;5.25;1.83;;;;;;;;;;5007312;28;20093;-61
2022/11/05 14:17:53;;;;;;;6.60;1.90;;;;;;;;;;4986172;28;20125;-61
2022/11/05 14:20:31;;;;;;;6.55;2.00;;;;;;;;;;4986868;28;20076;-61
2022/11/05 14:23:16;;;;;;;6.90;1.98;;;;;;;;;;4984270;28;20432;-60
2022/11/05 14:25:42;;;;;;;4.07;1.73;;;;;;;;;;4989559;28;20030;-61
2022/11/05 14:28:47;;;;;;;6.00;2.55;;;;;;;;;;4989195;28;20080;-61
2022/11/05 14:31:19;;;;;;;6.30;2.30;;;;;;;;;;5029561;28;20088;-61
2022/11/05 14:34:00;;;;;;;9.27;2.77;;;;;;;;;;5028749;28;20125;-61
2022/11/05 14:36:31;;;;;;;11.75;2.85;;;;;;;;;;5029061;28;20060;-61
2022/11/05 14:39:12;;;;;;;11.85;2.30;;;;;;;;;;5029327;28;20060;-61
2022/11/05 14:41:53;;;;;;;7.68;1.60;;;;;;;;;;5027210;28;20061;-61
2022/11/05 14:44:19;;;;;;;10.82;2.60;;;;;;;;;;5029441;28;20033;-61
2022/11/05 14:46:47;;;;;;;9.00;1.92;;;;;;;;;;5029545;28;20068;-60
2022/11/05 14:49:18;;;;;;;5.90;2.03;;;;;;;;;;5029334;28;20034;-61
2022/11/05 14:51:46;;;;;;;7.93;1.85;;;;;;;;;;5027401;28;20384;-61
2022/11/05 14:54:18;;;;;;;7.65;2.22;;;;;;;;;;5029178;28;20107;-61
2022/11/05 14:56:58;;;;;;;6.35;2.40;;;;;;;;;;5029153;28;20030;-61
2022/11/05 14:59:24;;;;;;;8.05;2.35;;;;;;;;;;5030885;28;20033;-61
2022/11/05 15:02:08;;;;;;;4.35;1.60;;;;;;;;;;5010730;28;20076;-61
2022/11/05 15:04:36;;;;;;;6.93;1.75;;;;;;;;;;4990709;28;20515;-61
2022/11/05 15:07:02;;;;;;;8.82;2.15;;;;;;;;;;4979194;28;20550;-61
2022/11/05 15:09:36;;;;;;;8.77;1.70;;;;;;;;;;4983323;28;20126;-61
2022/11/05 15:12:06;;;;;;;6.93;1.67;;;;;;;;;;4986105;28;20395;-63
2022/11/05 15:14:34;;;;;;;4.57;2.40;;;;;;;;;;4986343;28;20060;-61
2022/11/05 15:17:09;;;;;;;9.30;3.05;;;;;;;;;;4981595;28;20038;-61
2022/11/05 15:19:36;;;;;;;6.25;1.52;;;;;;;;;;4989985;28;20022;-61
2022/11/05 15:22:05;;;;;;;16.10;7.43;;;;;;;;;;4992484;28;20027;-61
2022/11/05 15:24:31;;;;;;;11.27;3.75;;;;;;;;;;4987156;28;20117;-61
2022/11/05 15:27:07;;;;;;;5.72;2.30;;;;;;;;;;4993445;28;20036;-61
2022/11/05 15:29:33;;;;;;;10.18;5.28;;;;;;;;;;5000186;28;20026;-60
2022/11/05 15:32:00;;;;;;;8.80;3.00;;;;;;;;;;4984172;28;20026;-61